Time;durP1;ratioP1;P1;durP2;ratioP2;P2;SDS_P1;SDS_P2;PMS_P1;PMS_P2;Temp;Humidity;BMP_temperature;BMP_pressure;BME280_temperature;BME280_humidity;BME280_pressure;Samples;Min_cycle;Max_cycle;Signal;HPM_P1;HPM_P2
2022/12/20 00:01:18;;;;;;;78.70;28.73;;;-0.90;99.90;;;;;;5051145;28;20081;-67
2022/12/20 00:03:44;;;;;;;79.55;30.63;;;-0.90;99.90;;;;;;5051363;28;20025;-66
2022/12/20 00:06:11;;;;;;;76.85;30.20;;;-0.90;99.90;;;;;;5049981;28;20033;-67
2022/12/20 00:08:38;;;;;;;74.20;28.30;;;-0.90;99.90;;;;;;5050328;28;20135;-67
2022/12/20 00:11:06;;;;;;;79.22;31.33;;;-0.90;99.90;;;;;;5051326;28;20044;-66
2022/12/20 00:13:32;;;;;;;80.32;30.63;;;-0.90;99.90;;;;;;5052401;28;20104;-67
2022/12/20 00:16:13;;;;;;;75.00;28.58;;;-0.90;99.90;;;;;;5055492;28;20029;-66
2022/12/20 00:18:40;;;;;;;78.18;28.35;;;-0.90;99.90;;;;;;5055336;28;20033;-66
2022/12/20 00:21:08;;;;;;;77.53;28.75;;;-0.90;99.90;;;;;;5055627;28;20037;-66
2022/12/20 00:23:35;;;;;;;74.85;27.85;;;-0.90;99.90;;;;;;5055374;28;20033;-67
2022/12/20 00:26:12;;;;;;;80.07;29.45;;;-0.90;99.90;;;;;;5055352;28;20031;-67
2022/12/20 00:28:39;;;;;;;83.43;29.80;;;-0.90;99.90;;;;;;5055391;28;20033;-66
2022/12/20 00:31:06;;;;;;;72.68;28.77;;;-1.00;99.90;;;;;;5055485;28;20080;-67
2022/12/20 00:33:33;;;;;;;79.80;29.40;;;-1.00;99.90;;;;;;5055544;28;20037;-66
2022/12/20 00:35:58;;;;;;;79.18;30.52;;;-0.90;99.90;;;;;;5055566;28;20021;-67
2022/12/20 00:38:25;;;;;;;81.32;29.88;;;-1.00;99.90;;;;;;5054563;28;20445;-67
2022/12/20 00:41:11;;;;;;;81.63;30.25;;;-1.00;99.90;;;;;;5055039;28;20025;-66
2022/12/20 00:43:38;;;;;;;91.20;30.85;;;-0.90;99.90;;;;;;5055040;28;20032;-66
2022/12/20 00:46:05;;;;;;;86.15;30.77;;;-0.90;99.90;;;;;;5054702;28;20028;-66
2022/12/20 00:48:32;;;;;;;83.28;31.85;;;-0.90;99.90;;;;;;5054264;28;20068;-66
2022/12/20 00:50:59;;;;;;;86.57;31.30;;;-0.90;99.90;;;;;;5054880;28;20025;-66
2022/12/20 00:53:25;;;;;;;85.82;31.77;;;-0.90;99.90;;;;;;5054435;28;20166;-66
2022/12/20 00:55:50;;;;;;;83.45;31.40;;;-0.90;99.90;;;;;;5054779;28;20523;-66
2022/12/20 00:58:16;;;;;;;86.90;31.33;;;-0.90;99.90;;;;;;5054135;28;20060;-66
2022/12/20 01:00:41;;;;;;;89.00;32.95;;;-0.90;99.90;;;;;;5054767;28;20074;-66
2022/12/20 01:03:08;;;;;;;76.40;30.23;;;-0.90;99.90;;;;;;5054749;28;20148;-66
2022/12/20 01:05:34;;;;;;;93.03;32.90;;;-0.90;99.90;;;;;;5054590;28;20029;-66
2022/12/20 01:08:00;;;;;;;89.95;31.90;;;-0.90;99.90;;;;;;5056081;28;20028;-66
2022/12/20 01:10:26;;;;;;;84.53;30.30;;;-0.90;99.90;;;;;;5055696;28;20032;-66
2022/12/20 01:12:52;;;;;;;90.18;32.60;;;-0.90;99.90;;;;;;5054959;28;20453;-67
2022/12/20 01:15:20;;;;;;;88.00;32.20;;;-0.90;99.90;;;;;;5054121;28;20024;-67
2022/12/20 01:17:45;;;;;;;87.72;32.35;;;-0.90;99.90;;;;;;5054287;28;20032;-66
2022/12/20 01:20:11;;;;;;;85.38;33.97;;;-0.90;99.90;;;;;;5053655;28;20037;-67
2022/12/20 01:22:37;;;;;;;90.85;34.92;;;-1.00;99.90;;;;;;5054127;28;20104;-67
2022/12/20 01:25:03;;;;;;;98.38;33.25;;;-1.00;99.90;;;;;;5053296;28;20121;-67
2022/12/20 01:27:29;;;;;;;95.80;34.30;;;-1.00;99.90;;;;;;5053434;28;20455;-67
2022/12/20 01:29:55;;;;;;;78.90;31.05;;;-1.00;99.90;;;;;;5054194;28;20041;-67
2022/12/20 01:32:20;;;;;;;98.38;34.22;;;-0.90;99.90;;;;;;5053549;28;20078;-67
2022/12/20 01:34:46;;;;;;;100.72;34.33;;;-0.90;99.90;;;;;;5053921;28;20028;-67
2022/12/20 01:37:12;;;;;;;85.00;32.00;;;-1.00;99.90;;;;;;5053405;28;20509;-67
2022/12/20 01:39:37;;;;;;;83.60;32.22;;;-0.90;99.90;;;;;;5053430;28;20021;-67
2022/12/20 01:42:04;;;;;;;98.93;35.08;;;-0.90;99.90;;;;;;5053660;28;20381;-67
2022/12/20 01:44:29;;;;;;;89.10;32.13;;;-0.90;99.90;;;;;;5053278;28;20453;-67
2022/12/20 01:46:55;;;;;;;79.72;30.83;;;-1.00;99.90;;;;;;5053538;28;20031;-67
2022/12/20 01:49:33;;;;;;;89.15;32.85;;;-0.90;99.90;;;;;;5053241;28;20528;-67
2022/12/20 01:52:03;;;;;;;88.55;33.10;;;-0.90;99.90;;;;;;5053317;28;20067;-67
2022/12/20 01:54:36;;;;;;;96.13;34.08;;;-0.90;99.90;;;;;;5053034;28;20029;-67
2022/12/20 01:57:07;;;;;;;87.53;32.47;;;-1.00;99.90;;;;;;5053121;28;20033;-67
2022/12/20 01:59:36;;;;;;;98.15;33.63;;;-1.00;99.90;;;;;;5052585;28;20037;-66
2022/12/20 02:02:06;;;;;;;90.68;33.15;;;-1.00;99.90;;;;;;5052911;28;20033;-67
2022/12/20 02:04:31;;;;;;;88.32;31.65;;;-1.00;99.90;;;;;;5053039;28;20033;-67
2022/12/20 02:06:58;;;;;;;87.93;31.48;;;-1.00;99.90;;;;;;5052746;28;20060;-67
2022/12/20 02:09:24;;;;;;;78.03;30.35;;;-1.00;99.90;;;;;;5052710;28;20128;-66
2022/12/20 02:12:05;;;;;;;79.88;31.20;;;-0.90;99.90;;;;;;5053003;28;20485;-66
2022/12/20 02:14:50;;;;;;;87.13;30.55;;;-0.90;99.90;;;;;;5052703;28;20041;-66
2022/12/20 02:17:24;;;;;;;80.35;31.30;;;-0.90;99.90;;;;;;5053641;28;20459;-67
2022/12/20 02:20:06;;;;;;;83.93;29.77;;;-0.90;99.90;;;;;;5054001;28;20381;-67
2022/12/20 02:22:44;;;;;;;75.03;30.52;;;-0.90;99.90;;;;;;5052427;28;20021;-66
2022/12/20 02:25:33;;;;;;;76.22;28.95;;;-1.00;99.90;;;;;;5052615;28;20474;-66
2022/12/20 02:28:23;;;;;;;70.22;28.38;;;-0.90;99.90;;;;;;5047078;28;20033;-66
2022/12/20 02:30:53;;;;;;;67.70;27.17;;;-0.90;99.90;;;;;;5052929;28;20021;-66
2022/12/20 02:33:20;;;;;;;72.90;27.17;;;-0.90;99.90;;;;;;5052746;28;20179;-66
2022/12/20 02:35:46;;;;;;;64.50;26.08;;;-0.90;99.90;;;;;;5052228;28;20021;-66
2022/12/20 02:38:33;;;;;;;64.03;26.75;;;-0.90;99.90;;;;;;5052762;28;20477;-66
2022/12/20 02:41:34;;;;;;;70.63;27.05;;;-0.90;99.90;;;;;;5052521;28;20390;-67
2022/12/20 02:46:55;;;;;;;66.32;27.27;;;-0.90;99.90;;;;;;5052559;28;20244;-66
2022/12/20 02:49:25;;;;;;;67.30;26.50;;;-0.80;99.90;;;;;;5052186;28;20029;-66
2022/12/20 02:51:53;;;;;;;65.80;26.13;;;-0.80;99.90;;;;;;5052781;28;20074;-66
2022/12/20 02:54:20;;;;;;;69.57;26.38;;;-0.90;99.90;;;;;;5052127;28;20032;-67
2022/12/20 02:56:59;;;;;;;65.38;26.42;;;-0.80;99.90;;;;;;5052417;28;20071;-66
2022/12/20 02:59:31;;;;;;;71.55;28.00;;;-0.80;99.90;;;;;;5051774;28;20116;-67
2022/12/20 03:01:57;;;;;;;68.57;27.70;;;-0.80;99.90;;;;;;5052665;28;20025;-66
2022/12/20 03:04:26;;;;;;;80.63;29.90;;;-0.80;99.90;;;;;;5051999;28;20451;-66
2022/12/20 03:07:04;;;;;;;76.75;29.40;;;-0.80;99.90;;;;;;5052327;28;20036;-66
2022/12/20 03:09:31;;;;;;;74.07;28.10;;;-0.80;99.90;;;;;;5051730;28;20033;-65
2022/12/20 03:11:56;;;;;;;73.97;30.17;;;-0.80;99.90;;;;;;5051733;28;20327;-65
2022/12/20 03:14:23;;;;;;;76.40;31.13;;;-0.80;99.90;;;;;;5051794;28;20032;-66
2022/12/20 03:16:49;;;;;;;72.20;28.63;;;-0.80;99.90;;;;;;5052370;28;20192;-67
2022/12/20 03:19:15;;;;;;;75.40;29.65;;;-0.80;99.90;;;;;;5051782;28;20073;-66
2022/12/20 03:21:41;;;;;;;85.65;31.67;;;-0.80;99.90;;;;;;5051732;28;20089;-66
2022/12/20 03:24:07;;;;;;;80.10;29.75;;;-0.80;99.90;;;;;;5051707;28;20111;-67
2022/12/20 03:26:32;;;;;;;75.43;29.45;;;-0.90;99.90;;;;;;5051598;28;20029;-67
2022/12/20 03:28:58;;;;;;;74.60;29.33;;;-0.80;99.90;;;;;;5051748;28;20060;-67
2022/12/20 03:31:24;;;;;;;75.45;30.75;;;-0.80;99.90;;;;;;5051597;28;20350;-68
2022/12/20 03:33:50;;;;;;;72.50;29.20;;;-0.80;99.90;;;;;;5052103;28;20025;-67
2022/12/20 03:36:15;;;;;;;79.70;29.73;;;-0.80;99.90;;;;;;5051753;28;20473;-67
2022/12/20 03:38:41;;;;;;;79.53;29.95;;;-0.80;99.90;;;;;;5051451;28;20037;-67
2022/12/20 03:41:06;;;;;;;76.47;28.90;;;-0.80;99.90;;;;;;5051885;28;20025;-67
2022/12/20 03:43:32;;;;;;;76.57;29.67;;;-0.90;99.90;;;;;;5050258;28;20035;-67
2022/12/20 03:45:58;;;;;;;90.20;31.20;;;-0.80;99.90;;;;;;5051690;28;20378;-67
2022/12/20 03:48:24;;;;;;;77.85;30.42;;;-0.90;99.90;;;;;;5049628;28;20087;-68
2022/12/20 03:50:49;;;;;;;84.28;31.58;;;-0.90;99.90;;;;;;5055519;28;20485;-67
2022/12/20 03:53:15;;;;;;;81.40;31.52;;;-0.80;99.90;;;;;;5055659;28;20397;-67
2022/12/20 03:55:40;;;;;;;80.28;31.40;;;-0.80;99.90;;;;;;5055255;28;20047;-67
2022/12/20 03:58:06;;;;;;;69.05;28.33;;;-0.80;99.90;;;;;;5055632;28;20473;-66
2022/12/20 04:00:32;;;;;;;73.88;29.83;;;-0.80;99.90;;;;;;5054743;28;20083;-67
2022/12/20 04:02:57;;;;;;;75.30;30.90;;;-0.80;99.90;;;;;;5055734;28;20040;-67
2022/12/20 04:05:23;;;;;;;77.03;30.90;;;-0.80;99.90;;;;;;5055504;28;20056;-67
2022/12/20 04:07:49;;;;;;;87.60;32.10;;;-0.80;99.90;;;;;;5054853;28;20028;-67
2022/12/20 04:10:14;;;;;;;77.43;32.30;;;-0.80;99.90;;;;;;5055647;28;20470;-67
2022/12/20 04:12:40;;;;;;;78.20;29.08;;;-0.80;99.90;;;;;;5054948;28;20082;-67
2022/12/20 04:15:06;;;;;;;77.88;29.33;;;-0.80;99.90;;;;;;5055268;28;20108;-67
2022/12/20 04:17:32;;;;;;;74.43;29.48;;;-0.90;99.90;;;;;;5054887;28;20374;-67
2022/12/20 04:20:17;;;;;;;70.75;29.50;;;-0.90;99.90;;;;;;5055187;28;20040;-66
2022/12/20 04:22:46;;;;;;;74.20;28.15;;;-0.80;99.90;;;;;;5054855;28;20369;-66
2022/12/20 04:25:12;;;;;;;78.80;32.90;;;-0.80;99.90;;;;;;5055174;28;20048;-66
2022/12/20 04:27:38;;;;;;;73.43;29.10;;;-0.80;99.90;;;;;;5054393;28;20107;-65
2022/12/20 04:30:04;;;;;;;77.78;29.42;;;-0.80;99.90;;;;;;5054797;28;20426;-66
2022/12/20 04:32:29;;;;;;;73.60;30.58;;;-0.80;99.90;;;;;;5053102;28;20108;-66
2022/12/20 04:34:55;;;;;;;75.45;30.55;;;-0.80;99.90;;;;;;5055155;28;20147;-66
2022/12/20 04:37:21;;;;;;;72.00;29.83;;;-0.80;99.90;;;;;;5054982;28;20081;-65
2022/12/20 04:39:46;;;;;;;79.38;31.23;;;-0.80;99.90;;;;;;5054473;28;20388;-66
2022/12/20 04:42:12;;;;;;;76.40;30.30;;;-0.80;99.90;;;;;;5054701;28;20035;-66
2022/12/20 04:44:37;;;;;;;78.18;30.08;;;-0.80;99.90;;;;;;5054312;28;20036;-65
2022/12/20 04:47:03;;;;;;;75.57;30.30;;;-0.80;99.90;;;;;;5054611;28;20426;-67
2022/12/20 04:49:29;;;;;;;83.65;31.65;;;-0.80;99.90;;;;;;5054315;28;20040;-66
2022/12/20 04:53:46;;;;;;;90.20;31.98;;;-0.80;99.90;;;;;;5054957;28;20035;-66
2022/12/20 04:54:40;;;;;;;83.22;33.10;;;-0.80;99.90;;;;;;5053605;28;20029;-66
2022/12/20 04:57:05;;;;;;;79.03;31.75;;;-0.70;99.90;;;;;;5054427;28;20051;-66
2022/12/20 04:59:31;;;;;;;82.38;31.77;;;-0.70;99.90;;;;;;5053557;28;20037;-65
2022/12/20 05:01:57;;;;;;;81.72;31.45;;;-0.80;99.90;;;;;;5053428;28;20484;-65
2022/12/20 05:04:22;;;;;;;81.95;31.23;;;-0.80;99.90;;;;;;5054295;28;20037;-67
2022/12/20 05:06:48;;;;;;;87.65;32.70;;;-0.80;99.90;;;;;;5053988;28;20154;-66
2022/12/20 05:09:13;;;;;;;84.68;31.65;;;-0.80;99.90;;;;;;5054654;28;20422;-66
2022/12/20 05:11:39;;;;;;;78.90;30.42;;;-0.80;99.90;;;;;;5052812;28;20074;-66
2022/12/20 05:14:05;;;;;;;88.85;32.65;;;-0.80;99.90;;;;;;5054481;28;20427;-65
2022/12/20 05:16:30;;;;;;;84.30;30.45;;;-0.80;99.90;;;;;;5053939;28;20363;-68
2022/12/20 05:18:56;;;;;;;79.25;31.50;;;-0.80;99.90;;;;;;5053994;28;20046;-67
2022/12/20 05:26:50;;;;;;;82.47;32.70;;;-0.80;99.90;;;;;;5053300;28;20143;-67
2022/12/20 05:29:15;;;;;;;83.85;31.88;;;-0.80;99.90;;;;;;5053789;28;20033;-66
2022/12/20 05:31:41;;;;;;;92.25;34.15;;;-0.80;99.90;;;;;;5053463;28;20021;-67
2022/12/20 05:34:07;;;;;;;82.60;32.65;;;-0.70;99.90;;;;;;5053813;28;20032;-67
2022/12/20 05:36:32;;;;;;;77.07;31.70;;;-0.70;99.90;;;;;;5053275;28;20404;-67
2022/12/20 05:38:59;;;;;;;88.25;33.35;;;-0.70;99.90;;;;;;5053679;28;20040;-65
2022/12/20 05:41:24;;;;;;;80.03;31.83;;;-0.80;99.90;;;;;;5053513;28;20037;-65
2022/12/20 05:43:50;;;;;;;84.07;32.72;;;-0.80;99.90;;;;;;5053132;28;20028;-66
2022/12/20 05:46:15;;;;;;;88.28;33.90;;;-0.80;99.90;;;;;;5053147;28;20094;-66
2022/12/20 05:48:41;;;;;;;82.05;32.15;;;-0.80;99.90;;;;;;5053045;28;20024;-66
2022/12/20 05:51:07;;;;;;;79.38;32.30;;;-0.80;99.90;;;;;;5053493;28;20078;-66
2022/12/20 05:53:32;;;;;;;82.15;31.35;;;-0.70;99.90;;;;;;5051876;28;20466;-67
2022/12/20 05:56:00;;;;;;;84.55;32.65;;;-0.70;99.90;;;;;;5053299;28;20033;-66
2022/12/20 05:58:26;;;;;;;82.50;32.92;;;-0.70;99.90;;;;;;5051830;28;20478;-66
2022/12/20 06:00:52;;;;;;;85.75;32.38;;;-0.70;99.90;;;;;;5052728;28;20049;-65
2022/12/20 06:03:17;;;;;;;90.05;32.55;;;-0.70;99.90;;;;;;5053428;28;20067;-66
2022/12/20 06:05:44;;;;;;;82.13;34.95;;;-0.80;99.90;;;;;;5052729;28;20068;-66
2022/12/20 06:08:10;;;;;;;84.88;34.22;;;-0.70;99.90;;;;;;5052799;28;20526;-66
2022/12/20 06:10:36;;;;;;;89.80;33.47;;;-0.80;99.90;;;;;;5052796;28;20107;-67
2022/12/20 06:13:03;;;;;;;91.93;33.65;;;-0.70;99.90;;;;;;5051593;28;20025;-67
2022/12/20 06:15:29;;;;;;;92.68;33.75;;;-0.80;99.90;;;;;;5053129;28;20385;-66
2022/12/20 06:17:55;;;;;;;91.80;35.00;;;-0.80;99.90;;;;;;5052520;28;20025;-66
2022/12/20 06:20:21;;;;;;;99.45;35.13;;;-0.80;99.90;;;;;;5052903;28;20099;-66
2022/12/20 06:22:47;;;;;;;90.40;34.50;;;-0.80;99.90;;;;;;5052546;28;20499;-67
2022/12/20 06:25:14;;;;;;;88.47;34.95;;;-0.80;99.90;;;;;;5052521;28;20114;-70
2022/12/20 06:27:40;;;;;;;94.75;32.65;;;-0.80;99.90;;;;;;5052401;28;20029;-66
2022/12/20 06:30:07;;;;;;;85.20;33.10;;;-0.80;99.90;;;;;;5052633;28;20033;-66
2022/12/20 06:32:33;;;;;;;84.05;32.83;;;-0.70;99.90;;;;;;5051368;28;20025;-67
2022/12/20 06:34:58;;;;;;;94.25;34.30;;;-0.80;99.90;;;;;;5050850;28;20025;-67
2022/12/20 06:37:24;;;;;;;90.90;33.92;;;-0.70;99.90;;;;;;5052785;28;20119;-67
2022/12/20 06:39:50;;;;;;;92.50;33.97;;;-0.80;99.90;;;;;;5052075;28;20037;-67
2022/12/20 06:42:16;;;;;;;87.88;33.17;;;-0.80;99.90;;;;;;5052419;28;20115;-66
2022/12/20 06:44:41;;;;;;;92.20;33.55;;;-0.80;99.90;;;;;;5052122;28;20104;-68
2022/12/20 06:47:07;;;;;;;86.72;34.17;;;-0.70;99.90;;;;;;5052436;28;20385;-67
2022/12/20 06:49:33;;;;;;;97.10;35.50;;;-0.70;99.90;;;;;;5052373;28;20108;-65
2022/12/20 06:51:58;;;;;;;84.90;33.78;;;-0.70;99.90;;;;;;5052006;28;20432;-68
2022/12/20 06:54:24;;;;;;;86.30;32.30;;;-0.70;99.90;;;;;;5052334;28;20033;-66
2022/12/20 06:56:49;;;;;;;91.25;33.08;;;-0.70;99.90;;;;;;5051951;28;20021;-67
2022/12/20 06:59:15;;;;;;;85.32;33.63;;;-0.70;99.90;;;;;;5052010;28;20041;-67
2022/12/20 07:01:41;;;;;;;92.63;34.20;;;-0.70;99.90;;;;;;5051982;28;20021;-67
2022/12/20 07:04:07;;;;;;;95.38;34.95;;;-0.70;99.90;;;;;;5052115;28;20055;-67
2022/12/20 07:06:33;;;;;;;84.50;33.47;;;-0.70;99.90;;;;;;5052233;28;20343;-66
2022/12/20 07:08:59;;;;;;;97.30;36.15;;;-0.70;99.90;;;;;;5051850;28;20527;-66
2022/12/20 07:11:24;;;;;;;97.28;35.10;;;-0.70;99.90;;;;;;5052294;28;20073;-67
2022/12/20 07:13:55;;;;;;;90.38;35.15;;;-0.70;99.90;;;;;;5051518;28;20025;-67
2022/12/20 07:16:21;;;;;;;98.30;35.45;;;-0.70;99.90;;;;;;5052309;28;20128;-65
2022/12/20 07:18:51;;;;;;;106.45;36.95;;;-0.70;99.90;;;;;;5051510;28;20509;-67
2022/12/20 07:21:18;;;;;;;102.87;37.17;;;-0.70;99.90;;;;;;5052092;28;20029;-66
2022/12/20 07:23:44;;;;;;;99.28;34.78;;;-0.70;99.90;;;;;;5052253;28;20250;-67
2022/12/20 07:26:10;;;;;;;104.35;36.50;;;-0.70;99.90;;;;;;5056313;28;20039;-67
2022/12/20 07:28:36;;;;;;;95.40;34.97;;;-0.70;99.90;;;;;;5056003;28;20113;-67
2022/12/20 07:31:02;;;;;;;105.25;37.35;;;-0.60;99.90;;;;;;5055758;28;20112;-65
2022/12/20 07:33:29;;;;;;;99.95;36.35;;;-0.70;99.90;;;;;;5054418;28;20025;-66
2022/12/20 07:36:02;;;;;;;97.95;35.60;;;-0.60;99.90;;;;;;5055259;28;20326;-66
2022/12/20 07:38:28;;;;;;;89.78;34.13;;;-0.60;99.90;;;;;;5055824;28;20047;-66
2022/12/20 07:40:54;;;;;;;99.68;35.65;;;-0.60;99.90;;;;;;5053425;28;20442;-65
2022/12/20 07:43:20;;;;;;;103.30;32.38;;;-0.60;99.90;;;;;;5055892;28;20061;-66
2022/12/20 07:45:46;;;;;;;98.68;32.97;;;-0.60;99.90;;;;;;5055469;28;20359;-67
2022/12/20 07:48:12;;;;;;;97.45;34.75;;;-0.60;99.90;;;;;;5055782;28;20365;-67
2022/12/20 07:50:39;;;;;;;105.05;34.97;;;-0.70;99.90;;;;;;5055701;28;20037;-67
2022/12/20 07:53:06;;;;;;;103.63;35.60;;;-0.70;99.90;;;;;;5055536;28;20140;-67
2022/12/20 07:55:32;;;;;;;101.53;35.70;;;-0.70;99.90;;;;;;5055753;28;20044;-67
2022/12/20 07:58:03;;;;;;;95.78;35.72;;;-0.70;99.90;;;;;;5055105;28;20029;-66
2022/12/20 08:00:29;;;;;;;99.78;34.45;;;-0.70;99.90;;;;;;5055388;28;20037;-66
2022/12/20 08:03:05;;;;;;;100.90;33.90;;;-0.70;99.90;;;;;;5054950;28;20029;-67
2022/12/20 08:05:32;;;;;;;103.25;33.47;;;-0.70;99.90;;;;;;5054168;28;20052;-65
2022/12/20 08:07:58;;;;;;;100.90;34.78;;;-0.70;99.90;;;;;;5054958;28;20025;-65
2022/12/20 08:10:25;;;;;;;87.72;33.28;;;-0.60;99.90;;;;;;5054029;28;20041;-66
2022/12/20 08:12:50;;;;;;;92.75;33.22;;;-0.60;99.90;;;;;;5054840;28;20040;-66
2022/12/20 08:15:18;;;;;;;96.88;32.45;;;-0.60;99.90;;;;;;5055333;28;20017;-66
2022/12/20 08:17:43;;;;;;;96.50;32.45;;;-0.60;99.90;;;;;;5054955;28;20541;-66
2022/12/20 08:20:09;;;;;;;92.38;32.05;;;-0.60;99.90;;;;;;5055345;28;20120;-65
2022/12/20 08:22:35;;;;;;;88.43;30.92;;;-0.60;99.90;;;;;;5055246;28;20075;-67
2022/12/20 08:25:01;;;;;;;97.60;33.95;;;-0.60;99.90;;;;;;5053507;28;20029;-67
2022/12/20 08:27:26;;;;;;;92.18;32.10;;;-0.60;99.90;;;;;;5055098;28;20035;-66
2022/12/20 08:29:52;;;;;;;108.30;33.70;;;-0.60;99.90;;;;;;5053332;28;20028;-67
2022/12/20 08:32:18;;;;;;;97.50;33.42;;;-0.60;99.90;;;;;;5055006;28;20449;-66
2022/12/20 08:34:43;;;;;;;94.20;33.08;;;-0.70;99.90;;;;;;5054863;28;20040;-66
2022/12/20 08:37:09;;;;;;;90.95;33.05;;;-0.60;99.90;;;;;;5055000;28;20048;-66
2022/12/20 08:39:34;;;;;;;95.00;33.58;;;-0.70;99.90;;;;;;5054706;28;20029;-66
2022/12/20 08:42:00;;;;;;;93.80;31.90;;;-0.70;99.90;;;;;;5054363;28;20086;-66
2022/12/20 08:44:26;;;;;;;90.47;31.58;;;-0.60;99.90;;;;;;5054788;28;20028;-66
2022/12/20 08:46:53;;;;;;;92.20;31.30;;;-0.60;99.90;;;;;;5053987;28;20037;-67
2022/12/20 08:49:18;;;;;;;91.00;32.03;;;-0.60;99.90;;;;;;5054651;28;20032;-66
2022/12/20 08:51:44;;;;;;;91.28;31.38;;;-0.60;99.90;;;;;;5054601;28;20458;-66
2022/12/20 08:54:10;;;;;;;96.55;31.65;;;-0.60;99.90;;;;;;5054530;28;20060;-66
2022/12/20 08:56:35;;;;;;;91.40;30.30;;;-0.60;99.90;;;;;;5054582;28;20069;-66
2022/12/20 08:59:01;;;;;;;90.45;31.83;;;-0.60;99.90;;;;;;5053904;28;20047;-66
2022/12/20 09:01:29;;;;;;;87.10;33.67;;;-0.60;99.90;;;;;;5054531;28;20100;-66
2022/12/20 09:03:54;;;;;;;92.60;33.30;;;-0.50;99.90;;;;;;5053921;28;20025;-67
2022/12/20 09:06:21;;;;;;;85.35;31.30;;;-0.50;99.90;;;;;;5054577;28;20378;-66
2022/12/20 09:08:48;;;;;;;85.43;30.10;;;-0.50;99.90;;;;;;5053926;28;20029;-68
2022/12/20 09:11:17;;;;;;;86.13;29.38;;;-0.50;99.90;;;;;;5054567;28;20025;-65
2022/12/20 09:13:45;;;;;;;81.28;30.65;;;-0.50;99.90;;;;;;5054259;28;20025;-66
2022/12/20 09:16:12;;;;;;;78.60;27.58;;;-0.50;99.90;;;;;;5053568;28;20071;-67
2022/12/20 09:18:38;;;;;;;80.35;27.73;;;-0.50;99.90;;;;;;5052450;28;20025;-66
2022/12/20 09:21:05;;;;;;;86.88;29.83;;;-0.50;99.90;;;;;;5053958;28;20028;-66
2022/12/20 09:23:33;;;;;;;83.85;29.45;;;-0.50;99.90;;;;;;5053795;28;20021;-66
2022/12/20 09:26:09;;;;;;;78.43;29.02;;;-0.50;99.90;;;;;;5053749;28;20113;-66
2022/12/20 09:28:35;;;;;;;80.25;28.13;;;-0.40;99.90;;;;;;5054016;28;20424;-66
2022/12/20 09:31:03;;;;;;;75.90;29.10;;;-0.50;99.90;;;;;;5053352;28;20107;-66
2022/12/20 09:33:29;;;;;;;78.45;28.23;;;-0.50;99.90;;;;;;5053304;28;20493;-66
2022/12/20 09:35:56;;;;;;;76.47;27.13;;;-0.50;99.90;;;;;;5053385;28;20025;-66
2022/12/20 09:38:21;;;;;;;70.97;26.88;;;-0.50;99.90;;;;;;5053537;28;20048;-65
2022/12/20 09:40:49;;;;;;;71.43;26.63;;;-0.40;99.90;;;;;;5053372;28;20029;-66
2022/12/20 09:43:16;;;;;;;70.80;27.40;;;-0.40;99.90;;;;;;5053625;28;20032;-66
2022/12/20 09:45:46;;;;;;;70.03;26.38;;;-0.50;99.90;;;;;;5052145;28;20029;-66
2022/12/20 09:48:24;;;;;;;64.47;23.88;;;-0.50;99.90;;;;;;5052948;28;20108;-66
2022/12/20 09:51:05;;;;;;;65.10;24.85;;;-0.50;99.90;;;;;;5053174;28;20029;-69
2022/12/20 09:54:00;;;;;;;68.90;26.15;;;-0.40;99.90;;;;;;5053671;28;20479;-66
2022/12/20 09:56:27;;;;;;;65.38;24.13;;;-0.50;99.90;;;;;;5053519;28;20366;-66
2022/12/20 09:59:14;;;;;;;61.13;23.80;;;-0.50;99.90;;;;;;5053031;28;20064;-66
2022/12/20 10:01:47;;;;;;;68.72;25.63;;;-0.40;99.90;;;;;;5053511;28;20081;-66
2022/12/20 10:04:24;;;;;;;69.75;24.50;;;-0.40;99.90;;;;;;5053315;28;20033;-66
2022/12/20 10:06:50;;;;;;;65.25;24.13;;;-0.40;99.90;;;;;;5053408;28;20028;-66
2022/12/20 10:09:43;;;;;;;61.42;23.30;;;-0.40;99.90;;;;;;5053630;28;20377;-67
2022/12/20 10:12:27;;;;;;;64.95;24.35;;;-0.40;99.90;;;;;;5052908;28;20029;-66
2022/12/20 10:14:56;;;;;;;60.45;24.05;;;-0.40;99.90;;;;;;5052823;28;20103;-66
2022/12/20 10:17:45;;;;;;;58.45;24.05;;;-0.40;99.90;;;;;;5053105;28;20477;-65
2022/12/20 10:20:26;;;;;;;61.58;24.67;;;-0.40;99.90;;;;;;5052746;28;20665;-66
2022/12/20 10:23:26;;;;;;;68.93;25.43;;;-0.30;99.90;;;;;;5053006;28;20100;-69
2022/12/20 10:25:55;;;;;;;77.10;26.55;;;-0.30;99.90;;;;;;5052857;28;20025;-69
2022/12/20 10:28:30;;;;;;;68.50;25.90;;;-0.30;99.90;;;;;;5053077;28;20021;-65
2022/12/20 10:31:06;;;;;;;71.40;25.75;;;-0.30;99.90;;;;;;5052672;28;20116;-66
2022/12/20 10:33:32;;;;;;;76.18;26.30;;;-0.30;99.90;;;;;;5052709;28;20466;-66
2022/12/20 10:36:20;;;;;;;74.03;26.60;;;-0.30;99.90;;;;;;5052351;28;20381;-66
2022/12/20 10:38:49;;;;;;;78.78;27.80;;;-0.30;99.90;;;;;;5052823;28;20025;-66
2022/12/20 10:41:20;;;;;;;90.13;29.83;;;-0.30;99.90;;;;;;5052359;28;20032;-66
2022/12/20 10:44:26;;;;;;;85.38;28.80;;;-0.30;99.90;;;;;;5052696;28;20036;-65
2022/12/20 10:46:54;;;;;;;87.18;27.75;;;-0.30;99.90;;;;;;5030393;28;20029;-66
2022/12/20 10:49:32;;;;;;;85.82;28.95;;;-0.30;99.90;;;;;;5013733;28;20029;-66
2022/12/20 10:52:06;;;;;;;97.85;29.75;;;-0.40;99.90;;;;;;5030038;28;20048;-67
2022/12/20 10:54:39;;;;;;;88.47;29.45;;;-0.40;99.90;;;;;;5030550;28;20034;-67
2022/12/20 10:57:21;;;;;;;91.25;30.13;;;-0.40;99.90;;;;;;5029823;28;20029;-68
2022/12/20 10:59:59;;;;;;;98.82;30.77;;;-0.40;99.90;;;;;;5029382;28;20065;-66
2022/12/20 11:02:37;;;;;;;94.43;31.92;;;-0.40;99.90;;;;;;5030617;28;20029;-66
2022/12/20 11:05:11;;;;;;;102.10;32.47;;;-0.40;99.90;;;;;;5013243;28;20033;-66
2022/12/20 11:07:58;;;;;;;95.70;32.78;;;-0.40;99.90;;;;;;5013830;28;20394;-66
2022/12/20 11:10:28;;;;;;;100.60;32.60;;;-0.40;99.90;;;;;;5029945;28;20049;-66
2022/12/20 11:12:57;;;;;;;96.05;32.80;;;-0.40;99.90;;;;;;5030021;28;20507;-66
2022/12/20 11:15:25;;;;;;;98.63;31.60;;;-0.40;99.90;;;;;;5029912;28;20060;-66
2022/12/20 11:18:09;;;;;;;103.35;32.55;;;-0.40;99.90;;;;;;5043262;28;20033;-66
2022/12/20 11:21:03;;;;;;;99.38;31.88;;;-0.40;99.90;;;;;;5051943;28;20029;-66
2022/12/20 11:23:44;;;;;;;96.63;30.10;;;-0.40;99.90;;;;;;5052040;28;20026;-66
2022/12/20 11:26:42;;;;;;;89.82;28.35;;;-0.40;99.90;;;;;;5051379;28;20025;-66
2022/12/20 11:29:20;;;;;;;85.65;29.20;;;-0.40;99.90;;;;;;5051688;28;20078;-66
2022/12/20 11:32:11;;;;;;;82.40;27.17;;;-0.40;99.90;;;;;;5052026;28;20044;-66
2022/12/20 11:34:57;;;;;;;87.38;30.08;;;-0.40;99.90;;;;;;5052043;28;20490;-66
2022/12/20 11:37:26;;;;;;;101.53;30.50;;;-0.40;99.90;;;;;;5051315;28;20041;-66
2022/12/20 11:40:30;;;;;;;89.63;30.02;;;-0.40;99.90;;;;;;5051854;28;20033;-65
2022/12/20 11:43:17;;;;;;;91.15;30.58;;;-0.40;99.90;;;;;;5051803;28;20025;-65
2022/12/20 11:46:16;;;;;;;107.03;32.17;;;-0.40;99.90;;;;;;5051791;28;20036;-66
2022/12/20 11:49:13;;;;;;;96.50;29.95;;;-0.40;99.90;;;;;;5051908;28;20028;-66
2022/12/20 11:51:46;;;;;;;102.85;29.85;;;-0.40;99.90;;;;;;5052319;28;20368;-67
2022/12/20 11:54:40;;;;;;;102.30;33.22;;;-0.40;99.90;;;;;;5051850;28;20028;-65
2022/12/20 11:57:26;;;;;;;106.68;34.17;;;-0.40;99.90;;;;;;5049161;28;20044;-66
2022/12/20 11:59:57;;;;;;;104.00;32.38;;;-0.40;99.90;;;;;;5051865;28;20029;-67
2022/12/20 12:02:52;;;;;;;118.60;33.22;;;-0.40;99.90;;;;;;5050250;28;20025;-67
2022/12/20 12:05:28;;;;;;;108.25;32.28;;;-0.40;99.90;;;;;;5051773;28;20040;-67
2022/12/20 12:08:03;;;;;;;116.90;32.58;;;-0.40;99.90;;;;;;5052170;28;20113;-66
2022/12/20 12:10:34;;;;;;;108.43;31.77;;;-0.40;99.90;;;;;;5053990;28;20037;-66
2022/12/20 12:13:16;;;;;;;110.05;32.20;;;-0.40;99.90;;;;;;5055264;28;20063;-68
2022/12/20 12:16:00;;;;;;;107.32;32.75;;;-0.50;99.90;;;;;;5055526;28;20044;-66
2022/12/20 12:18:31;;;;;;;104.85;31.85;;;-0.50;99.90;;;;;;5055112;28;20029;-67
2022/12/20 12:21:21;;;;;;;98.50;32.00;;;-0.50;99.90;;;;;;5055385;28;20041;-67
2022/12/20 12:23:57;;;;;;;103.18;31.40;;;-0.50;99.90;;;;;;5055309;28;20454;-66
2022/12/20 12:26:25;;;;;;;109.88;31.65;;;-0.50;99.90;;;;;;5054965;28;20052;-66
2022/12/20 12:28:57;;;;;;;114.88;32.10;;;-0.50;99.90;;;;;;5056101;28;20099;-66
2022/12/20 12:31:39;;;;;;;105.32;32.00;;;-0.50;99.90;;;;;;5054738;28;20033;-67
2022/12/20 12:34:26;;;;;;;116.93;35.38;;;-0.50;99.90;;;;;;5054636;28;20053;-67
2022/12/20 12:37:18;;;;;;;114.65;32.15;;;-0.50;99.90;;;;;;5053461;28;20052;-66
2022/12/20 12:39:46;;;;;;;106.80;33.05;;;-0.50;99.90;;;;;;5038377;28;20103;-66
2022/12/20 12:42:15;;;;;;;119.53;33.22;;;-0.50;99.90;;;;;;5054193;28;20485;-66
2022/12/20 12:44:47;;;;;;;107.97;31.17;;;-0.50;99.90;;;;;;5054712;28;20036;-65
2022/12/20 12:47:44;;;;;;;113.63;34.72;;;-0.50;99.90;;;;;;5054326;28;20035;-66
2022/12/20 12:50:26;;;;;;;114.88;31.55;;;-0.50;99.90;;;;;;5054423;28;20033;-67